sensor_id;sensor_type;location;lat;lon;timestamp;temperature;humidity
37972;DHT22;23794;48.234;8.344;2022-11-15T00:00:42;6.00;99.90
37972;DHT22;23794;48.234;8.344;2022-11-15T00:03:27;6.20;99.90
37972;DHT22;23794;48.234;8.344;2022-11-15T00:06:13;6.20;99.90
37972;DHT22;23794;48.234;8.344;2022-11-15T00:09:00;6.20;99.90
37972;DHT22;23794;48.234;8.344;2022-11-15T00:11:45;6.10;99.90
37972;DHT22;23794;48.234;8.344;2022-11-15T00:14:31;6.10;99.90
37972;DHT22;23794;48.234;8.344;2022-11-15T00:17:16;6.20;99.90
37972;DHT22;23794;48.234;8.344;2022-11-15T00:20:02;6.30;99.90
37972;DHT22;23794;48.234;8.344;2022-11-15T00:22:48;6.40;99.90
37972;DHT22;23794;48.234;8.344;2022-11-15T00:25:33;6.40;99.90
37972;DHT22;23794;48.234;8.344;2022-11-15T00:28:19;6.50;99.90
37972;DHT22;23794;48.234;8.344;2022-11-15T00:31:06;6.50;99.90
37972;DHT22;23794;48.234;8.344;2022-11-15T00:33:51;6.50;99.90
37972;DHT22;23794;48.234;8.344;2022-11-15T00:36:37;6.50;99.90
37972;DHT22;23794;48.234;8.344;2022-11-15T00:39:25;6.60;99.90
37972;DHT22;23794;48.234;8.344;2022-11-15T00:42:10;6.70;99.90
37972;DHT22;23794;48.234;8.344;2022-11-15T00:44:56;6.80;99.90
37972;DHT22;23794;48.234;8.344;2022-11-15T00:47:44;6.90;99.90
37972;DHT22;23794;48.234;8.344;2022-11-15T00:50:30;6.80;99.90
37972;DHT22;23794;48.234;8.344;2022-11-15T00:53:16;6.90;99.90
37972;DHT22;23794;48.234;8.344;2022-11-15T00:56:02;6.80;99.90
37972;DHT22;23794;48.234;8.344;2022-11-15T00:58:48;6.70;99.90
37972;DHT22;23794;48.234;8.344;2022-11-15T01:01:33;6.70;99.90
37972;DHT22;23794;48.234;8.344;2022-11-15T01:04:19;6.70;99.90
37972;DHT22;23794;48.234;8.344;2022-11-15T01:07:04;6.70;99.90
37972;DHT22;23794;48.234;8.344;2022-11-15T01:09:50;6.70;99.90
37972;DHT22;23794;48.234;8.344;2022-11-15T01:12:35;6.70;99.90
37972;DHT22;23794;48.234;8.344;2022-11-15T01:15:20;6.80;99.90
37972;DHT22;23794;48.234;8.344;2022-11-15T01:18:06;6.80;99.90
37972;DHT22;23794;48.234;8.344;2022-11-15T01:20:51;6.70;99.90
37972;DHT22;23794;48.234;8.344;2022-11-15T01:23:38;6.70;99.90
37972;DHT22;23794;48.234;8.344;2022-11-15T01:26:24;6.80;99.90
37972;DHT22;23794;48.234;8.344;2022-11-15T01:29:09;6.80;99.90
37972;DHT22;23794;48.234;8.344;2022-11-15T01:31:55;6.70;99.90
37972;DHT22;23794;48.234;8.344;2022-11-15T01:34:45;6.70;99.90
37972;DHT22;23794;48.234;8.344;2022-11-15T01:37:31;6.70;99.90
37972;DHT22;23794;48.234;8.344;2022-11-15T01:40:17;6.80;99.90
37972;DHT22;23794;48.234;8.344;2022-11-15T01:43:20;6.90;99.90
37972;DHT22;23794;48.234;8.344;2022-11-15T01:49:18;6.80;99.90
37972;DHT22;23794;48.234;8.344;2022-11-15T01:52:08;7.00;99.90
37972;DHT22;23794;48.234;8.344;2022-11-15T01:55:21;6.90;99.90
37972;DHT22;23794;48.234;8.344;2022-11-15T01:58:07;7.00;99.90
37972;DHT22;23794;48.234;8.344;2022-11-15T02:00:53;7.10;99.90
37972;DHT22;23794;48.234;8.344;2022-11-15T02:03:56;7.10;99.90
37972;DHT22;23794;48.234;8.344;2022-11-15T02:06:43;7.10;99.90
37972;DHT22;23794;48.234;8.344;2022-11-15T02:09:30;7.00;99.90
37972;DHT22;23794;48.234;8.344;2022-11-15T02:12:18;7.10;99.90
37972;DHT22;23794;48.234;8.344;2022-11-15T02:15:05;7.10;99.90
37972;DHT22;23794;48.234;8.344;2022-11-15T02:17:57;7.10;99.90
37972;DHT22;23794;48.234;8.344;2022-11-15T02:21:11;7.20;99.90
37972;DHT22;23794;48.234;8.344;2022-11-15T02:27:42;7.00;99.90
37972;DHT22;23794;48.234;8.344;2022-11-15T02:30:42;7.00;99.90
37972;DHT22;23794;48.234;8.344;2022-11-15T02:37:03;7.00;99.90
37972;DHT22;23794;48.234;8.344;2022-11-15T02:40:01;7.10;99.90
37972;DHT22;23794;48.234;8.344;2022-11-15T02:42:58;7.20;99.90
37972;DHT22;23794;48.234;8.344;2022-11-15T02:48:56;7.20;99.90
37972;DHT22;23794;48.234;8.344;2022-11-15T02:51:43;7.20;99.90
37972;DHT22;23794;48.234;8.344;2022-11-15T02:54:31;7.20;99.90
37972;DHT22;23794;48.234;8.344;2022-11-15T02:57:19;7.20;99.90
37972;DHT22;23794;48.234;8.344;2022-11-15T03:00:15;7.20;99.90
37972;DHT22;23794;48.234;8.344;2022-11-15T03:03:12;7.10;99.90
37972;DHT22;23794;48.234;8.344;2022-11-15T03:12:34;7.10;99.90
37972;DHT22;23794;48.234;8.344;2022-11-15T03:15:27;7.00;99.90
37972;DHT22;23794;48.234;8.344;2022-11-15T03:18:19;7.10;99.90
37972;DHT22;23794;48.234;8.344;2022-11-15T03:21:08;7.10;99.90
37972;DHT22;23794;48.234;8.344;2022-11-15T03:23:55;7.10;99.90
37972;DHT22;23794;48.234;8.344;2022-11-15T03:26:44;7.10;99.90
37972;DHT22;23794;48.234;8.344;2022-11-15T03:29:45;7.10;99.90
37972;DHT22;23794;48.234;8.344;2022-11-15T03:32:35;7.10;99.90
37972;DHT22;23794;48.234;8.344;2022-11-15T03:35:27;7.10;99.90
37972;DHT22;23794;48.234;8.344;2022-11-15T03:38:24;7.10;99.90
37972;DHT22;23794;48.234;8.344;2022-11-15T03:41:24;7.10;99.90
37972;DHT22;23794;48.234;8.344;2022-11-15T03:44:20;7.20;99.90
37972;DHT22;23794;48.234;8.344;2022-11-15T03:47:14;7.30;99.90
37972;DHT22;23794;48.234;8.344;2022-11-15T03:51:57;7.20;99.90
37972;DHT22;23794;48.234;8.344;2022-11-15T03:54:55;7.30;99.90
37972;DHT22;23794;48.234;8.344;2022-11-15T03:57:40;7.40;99.90
37972;DHT22;23794;48.234;8.344;2022-11-15T04:00:27;7.40;99.90
37972;DHT22;23794;48.234;8.344;2022-11-15T04:03:12;7.40;99.90
37972;DHT22;23794;48.234;8.344;2022-11-15T04:05:58;7.40;99.90
37972;DHT22;23794;48.234;8.344;2022-11-15T04:08:43;7.50;99.90
37972;DHT22;23794;48.234;8.344;2022-11-15T04:11:29;7.50;99.90
37972;DHT22;23794;48.234;8.344;2022-11-15T04:14:14;7.50;99.90
37972;DHT22;23794;48.234;8.344;2022-11-15T04:17:00;7.50;99.90
37972;DHT22;23794;48.234;8.344;2022-11-15T04:19:45;7.50;99.90
37972;DHT22;23794;48.234;8.344;2022-11-15T04:22:52;7.50;99.90
37972;DHT22;23794;48.234;8.344;2022-11-15T04:25:59;7.60;99.90
37972;DHT22;23794;48.234;8.344;2022-11-15T04:28:45;7.90;99.90
37972;DHT22;23794;48.234;8.344;2022-11-15T04:31:49;8.20;99.90
37972;DHT22;23794;48.234;8.344;2022-11-15T04:34:35;8.30;99.90
37972;DHT22;23794;48.234;8.344;2022-11-15T04:37:20;8.30;99.90
37972;DHT22;23794;48.234;8.344;2022-11-15T04:40:06;8.30;99.90
37972;DHT22;23794;48.234;8.344;2022-11-15T04:42:51;8.20;99.90
37972;DHT22;23794;48.234;8.344;2022-11-15T04:45:37;8.20;99.90
37972;DHT22;23794;48.234;8.344;2022-11-15T04:48:22;8.30;99.90
37972;DHT22;23794;48.234;8.344;2022-11-15T04:51:08;8.40;99.90
37972;DHT22;23794;48.234;8.344;2022-11-15T04:53:53;8.30;99.90
37972;DHT22;23794;48.234;8.344;2022-11-15T04:56:39;8.30;99.90
37972;DHT22;23794;48.234;8.344;2022-11-15T04:59:24;8.40;99.90
37972;DHT22;23794;48.234;8.344;2022-11-15T05:02:10;8.50;99.90
37972;DHT22;23794;48.234;8.344;2022-11-15T05:04:55;8.50;99.90
37972;DHT22;23794;48.234;8.344;2022-11-15T05:07:41;8.70;99.90
37972;DHT22;23794;48.234;8.344;2022-11-15T05:10:26;9.00;99.90
37972;DHT22;23794;48.234;8.344;2022-11-15T05:13:11;9.20;99.90
37972;DHT22;23794;48.234;8.344;2022-11-15T05:15:57;9.40;99.90
37972;DHT22;23794;48.234;8.344;2022-11-15T05:18:46;9.50;99.90
37972;DHT22;23794;48.234;8.344;2022-11-15T05:21:35;9.60;99.90
37972;DHT22;23794;48.234;8.344;2022-11-15T05:24:20;9.60;99.90
37972;DHT22;23794;48.234;8.344;2022-11-15T05:27:05;9.60;99.90
37972;DHT22;23794;48.234;8.344;2022-11-15T05:29:50;9.60;99.90
37972;DHT22;23794;48.234;8.344;2022-11-15T05:32:36;9.60;99.90
37972;DHT22;23794;48.234;8.344;2022-11-15T05:35:38;9.40;99.90
37972;DHT22;23794;48.234;8.344;2022-11-15T05:38:25;9.40;99.90
37972;DHT22;23794;48.234;8.344;2022-11-15T05:41:10;9.40;99.90
37972;DHT22;23794;48.234;8.344;2022-11-15T05:43:58;9.40;99.90
37972;DHT22;23794;48.234;8.344;2022-11-15T05:46:46;9.30;99.90
37972;DHT22;23794;48.234;8.344;2022-11-15T05:49:34;9.40;99.90
37972;DHT22;23794;48.234;8.344;2022-11-15T05:52:23;9.30;99.90
37972;DHT22;23794;48.234;8.344;2022-11-15T05:55:10;9.20;99.90
37972;DHT22;23794;48.234;8.344;2022-11-15T05:57:56;9.00;99.90
37972;DHT22;23794;48.234;8.344;2022-11-15T06:00:41;9.00;99.90
37972;DHT22;23794;48.234;8.344;2022-11-15T06:03:28;8.90;99.90
37972;DHT22;23794;48.234;8.344;2022-11-15T06:06:14;8.70;99.90
37972;DHT22;23794;48.234;8.344;2022-11-15T06:09:01;8.70;99.90
37972;DHT22;23794;48.234;8.344;2022-11-15T06:11:46;8.80;99.90
37972;DHT22;23794;48.234;8.344;2022-11-15T06:14:37;8.80;99.90
37972;DHT22;23794;48.234;8.344;2022-11-15T06:17:22;8.80;99.90
37972;DHT22;23794;48.234;8.344;2022-11-15T06:20:08;8.70;99.90
37972;DHT22;23794;48.234;8.344;2022-11-15T06:23:03;8.90;99.90
37972;DHT22;23794;48.234;8.344;2022-11-15T06:25:48;9.00;99.90
37972;DHT22;23794;48.234;8.344;2022-11-15T06:28:34;8.80;99.90
37972;DHT22;23794;48.234;8.344;2022-11-15T06:31:19;8.80;99.90
37972;DHT22;23794;48.234;8.344;2022-11-15T06:34:05;8.70;99.90
37972;DHT22;23794;48.234;8.344;2022-11-15T06:36:50;8.80;99.90
37972;DHT22;23794;48.234;8.344;2022-11-15T06:39:35;8.80;99.90
37972;DHT22;23794;48.234;8.344;2022-11-15T06:42:21;8.80;99.90
37972;DHT22;23794;48.234;8.344;2022-11-15T06:45:07;8.70;99.90
37972;DHT22;23794;48.234;8.344;2022-11-15T06:47:53;8.60;99.90
37972;DHT22;23794;48.234;8.344;2022-11-15T06:50:38;8.70;99.90
37972;DHT22;23794;48.234;8.344;2022-11-15T06:53:24;8.70;99.90
37972;DHT22;23794;48.234;8.344;2022-11-15T06:56:09;8.70;99.90
37972;DHT22;23794;48.234;8.344;2022-11-15T06:58:55;8.70;99.90
37972;DHT22;23794;48.234;8.344;2022-11-15T07:01:40;8.70;99.90
37972;DHT22;23794;48.234;8.344;2022-11-15T07:04:26;8.80;99.90
37972;DHT22;23794;48.234;8.344;2022-11-15T07:07:11;8.90;99.90
37972;DHT22;23794;48.234;8.344;2022-11-15T07:09:59;8.80;99.90
37972;DHT22;23794;48.234;8.344;2022-11-15T07:12:47;8.70;99.90
37972;DHT22;23794;48.234;8.344;2022-11-15T07:15:33;8.70;99.90
37972;DHT22;23794;48.234;8.344;2022-11-15T07:18:19;8.80;99.90
37972;DHT22;23794;48.234;8.344;2022-11-15T07:21:06;8.80;99.90
37972;DHT22;23794;48.234;8.344;2022-11-15T07:23:51;8.80;99.90
37972;DHT22;23794;48.234;8.344;2022-11-15T07:26:37;8.90;99.90
37972;DHT22;23794;48.234;8.344;2022-11-15T07:29:22;8.90;99.90
37972;DHT22;23794;48.234;8.344;2022-11-15T07:32:09;8.80;99.90
37972;DHT22;23794;48.234;8.344;2022-11-15T07:34:54;8.80;99.90
37972;DHT22;23794;48.234;8.344;2022-11-15T07:37:39;8.90;99.90
37972;DHT22;23794;48.234;8.344;2022-11-15T07:40:26;8.90;99.90
37972;DHT22;23794;48.234;8.344;2022-11-15T07:43:12;8.90;99.90
37972;DHT22;23794;48.234;8.344;2022-11-15T07:45:57;9.00;99.90
37972;DHT22;23794;48.234;8.344;2022-11-15T07:48:43;9.00;99.90
37972;DHT22;23794;48.234;8.344;2022-11-15T07:51:30;8.90;99.90
37972;DHT22;23794;48.234;8.344;2022-11-15T07:54:15;8.90;99.90
37972;DHT22;23794;48.234;8.344;2022-11-15T07:57:00;9.00;99.90
37972;DHT22;23794;48.234;8.344;2022-11-15T07:59:51;9.00;99.90
37972;DHT22;23794;48.234;8.344;2022-11-15T08:02:36;9.10;99.90
37972;DHT22;23794;48.234;8.344;2022-11-15T08:05:22;9.10;99.90
37972;DHT22;23794;48.234;8.344;2022-11-15T08:08:09;9.10;99.90
37972;DHT22;23794;48.234;8.344;2022-11-15T08:10:54;9.10;99.90
37972;DHT22;23794;48.234;8.344;2022-11-15T08:13:42;9.20;99.90
37972;DHT22;23794;48.234;8.344;2022-11-15T08:16:27;9.20;99.90
37972;DHT22;23794;48.234;8.344;2022-11-15T08:19:13;9.20;99.90
37972;DHT22;23794;48.234;8.344;2022-11-15T08:21:58;9.20;99.90
37972;DHT22;23794;48.234;8.344;2022-11-15T08:24:44;9.30;99.90
37972;DHT22;23794;48.234;8.344;2022-11-15T08:27:29;9.30;99.90
37972;DHT22;23794;48.234;8.344;2022-11-15T08:30:15;9.40;99.90
37972;DHT22;23794;48.234;8.344;2022-11-15T08:33:01;9.40;99.90
37972;DHT22;23794;48.234;8.344;2022-11-15T08:35:46;9.30;99.90
37972;DHT22;23794;48.234;8.344;2022-11-15T08:38:32;9.30;99.90
37972;DHT22;23794;48.234;8.344;2022-11-15T08:41:30;9.40;99.90
37972;DHT22;23794;48.234;8.344;2022-11-15T08:44:16;9.60;99.90
37972;DHT22;23794;48.234;8.344;2022-11-15T08:47:01;9.60;99.90
37972;DHT22;23794;48.234;8.344;2022-11-15T08:49:46;9.70;99.90
37972;DHT22;23794;48.234;8.344;2022-11-15T08:52:32;9.70;99.90
37972;DHT22;23794;48.234;8.344;2022-11-15T08:55:18;9.80;99.90
37972;DHT22;23794;48.234;8.344;2022-11-15T08:58:08;9.80;99.90
37972;DHT22;23794;48.234;8.344;2022-11-15T09:00:55;9.80;99.90
37972;DHT22;23794;48.234;8.344;2022-11-15T09:03:41;9.80;99.90
37972;DHT22;23794;48.234;8.344;2022-11-15T09:06:26;9.70;99.90
37972;DHT22;23794;48.234;8.344;2022-11-15T09:09:12;9.80;99.90
37972;DHT22;23794;48.234;8.344;2022-11-15T09:11:57;9.80;99.90
37972;DHT22;23794;48.234;8.344;2022-11-15T09:14:46;9.80;99.90
37972;DHT22;23794;48.234;8.344;2022-11-15T09:17:32;10.00;99.90
37972;DHT22;23794;48.234;8.344;2022-11-15T09:20:17;10.10;99.90
37972;DHT22;23794;48.234;8.344;2022-11-15T09:23:04;10.20;99.90
37972;DHT22;23794;48.234;8.344;2022-11-15T09:25:49;10.40;99.90
37972;DHT22;23794;48.234;8.344;2022-11-15T09:28:36;10.50;99.90
37972;DHT22;23794;48.234;8.344;2022-11-15T09:31:22;10.50;99.90
37972;DHT22;23794;48.234;8.344;2022-11-15T09:34:07;10.40;99.90
37972;DHT22;23794;48.234;8.344;2022-11-15T09:36:53;10.30;99.90
37972;DHT22;23794;48.234;8.344;2022-11-15T09:39:38;10.40;99.90
37972;DHT22;23794;48.234;8.344;2022-11-15T09:42:31;10.40;99.90
37972;DHT22;23794;48.234;8.344;2022-11-15T09:45:26;10.40;99.90
37972;DHT22;23794;48.234;8.344;2022-11-15T09:51:17;10.50;99.90
37972;DHT22;23794;48.234;8.344;2022-11-15T09:53:51;10.60;99.90
37972;DHT22;23794;48.234;8.344;2022-11-15T09:56:42;10.70;99.90
37972;DHT22;23794;48.234;8.344;2022-11-15T10:04:53;10.90;99.90
37972;DHT22;23794;48.234;8.344;2022-11-15T10:07:30;10.90;99.90
37972;DHT22;23794;48.234;8.344;2022-11-15T10:10:14;11.10;99.90
37972;DHT22;23794;48.234;8.344;2022-11-15T10:12:47;11.20;99.90
37972;DHT22;23794;48.234;8.344;2022-11-15T10:15:16;11.30;99.90
37972;DHT22;23794;48.234;8.344;2022-11-15T10:17:55;11.40;99.90
37972;DHT22;23794;48.234;8.344;2022-11-15T10:20:30;11.50;99.90
37972;DHT22;23794;48.234;8.344;2022-11-15T10:23:06;11.50;99.90
37972;DHT22;23794;48.234;8.344;2022-11-15T10:25:36;11.50;99.90
37972;DHT22;23794;48.234;8.344;2022-11-15T10:28:16;11.60;99.90
37972;DHT22;23794;48.234;8.344;2022-11-15T10:30:47;11.80;99.90
37972;DHT22;23794;48.234;8.344;2022-11-15T10:33:31;11.80;99.90
37972;DHT22;23794;48.234;8.344;2022-11-15T10:36:19;11.90;99.90
37972;DHT22;23794;48.234;8.344;2022-11-15T10:41:29;12.00;99.90
37972;DHT22;23794;48.234;8.344;2022-11-15T10:52:11;12.00;99.90
37972;DHT22;23794;48.234;8.344;2022-11-15T10:54:43;12.10;99.90
37972;DHT22;23794;48.234;8.344;2022-11-15T10:57:16;12.20;99.90
37972;DHT22;23794;48.234;8.344;2022-11-15T10:59:51;12.30;99.90
37972;DHT22;23794;48.234;8.344;2022-11-15T11:02:39;12.30;99.90
37972;DHT22;23794;48.234;8.344;2022-11-15T11:10:39;12.30;99.90
37972;DHT22;23794;48.234;8.344;2022-11-15T11:13:34;12.50;99.90
37972;DHT22;23794;48.234;8.344;2022-11-15T11:21:51;12.60;99.90
37972;DHT22;23794;48.234;8.344;2022-11-15T11:24:49;12.70;99.90
37972;DHT22;23794;48.234;8.344;2022-11-15T11:27:43;12.70;99.90
37972;DHT22;23794;48.234;8.344;2022-11-15T11:30:16;12.70;99.90
37972;DHT22;23794;48.234;8.344;2022-11-15T11:38:35;12.70;99.90
37972;DHT22;23794;48.234;8.344;2022-11-15T11:41:13;12.70;99.90
37972;DHT22;23794;48.234;8.344;2022-11-15T11:44:05;12.60;99.90
37972;DHT22;23794;48.234;8.344;2022-11-15T11:49:28;12.60;99.90
37972;DHT22;23794;48.234;8.344;2022-11-15T11:52:08;12.50;99.90
37972;DHT22;23794;48.234;8.344;2022-11-15T11:57:47;12.40;99.90
37972;DHT22;23794;48.234;8.344;2022-11-15T12:00:19;12.30;99.90
37972;DHT22;23794;48.234;8.344;2022-11-15T12:05:49;12.30;99.90
37972;DHT22;23794;48.234;8.344;2022-11-15T12:11:12;12.40;99.90
37972;DHT22;23794;48.234;8.344;2022-11-15T12:13:40;12.40;99.90
37972;DHT22;23794;48.234;8.344;2022-11-15T12:16:31;12.40;99.90
37972;DHT22;23794;48.234;8.344;2022-11-15T12:19:03;12.50;99.90
37972;DHT22;23794;48.234;8.344;2022-11-15T12:22:00;12.50;99.90
37972;DHT22;23794;48.234;8.344;2022-11-15T12:24:41;12.50;99.90
37972;DHT22;23794;48.234;8.344;2022-11-15T12:29:54;12.50;99.90
37972;DHT22;23794;48.234;8.344;2022-11-15T12:32:30;12.60;99.90
37972;DHT22;23794;48.234;8.344;2022-11-15T12:34:58;12.70;99.90
37972;DHT22;23794;48.234;8.344;2022-11-15T12:40:21;12.80;99.90
37972;DHT22;23794;48.234;8.344;2022-11-15T12:43:07;12.80;99.90
37972;DHT22;23794;48.234;8.344;2022-11-15T12:45:47;12.70;99.90
37972;DHT22;23794;48.234;8.344;2022-11-15T12:58:53;12.80;99.90
37972;DHT22;23794;48.234;8.344;2022-11-15T13:07:02;12.50;99.90
37972;DHT22;23794;48.234;8.344;2022-11-15T13:17:50;12.50;99.90
37972;DHT22;23794;48.234;8.344;2022-11-15T13:20:22;12.60;99.90
37972;DHT22;23794;48.234;8.344;2022-11-15T13:28:51;12.70;99.90
37972;DHT22;23794;48.234;8.344;2022-11-15T13:31:35;12.80;99.90
37972;DHT22;23794;48.234;8.344;2022-11-15T13:34:22;12.70;99.90
37972;DHT22;23794;48.234;8.344;2022-11-15T13:37:29;12.60;99.90
37972;DHT22;23794;48.234;8.344;2022-11-15T13:40:15;12.40;99.90
37972;DHT22;23794;48.234;8.344;2022-11-15T13:42:42;12.30;99.90
37972;DHT22;23794;48.234;8.344;2022-11-15T13:45:14;12.40;99.90
37972;DHT22;23794;48.234;8.344;2022-11-15T13:47:41;12.40;99.90
37972;DHT22;23794;48.234;8.344;2022-11-15T13:50:13;12.40;99.90
37972;DHT22;23794;48.234;8.344;2022-11-15T13:52:43;12.40;99.90
37972;DHT22;23794;48.234;8.344;2022-11-15T13:55:17;12.40;99.90
37972;DHT22;23794;48.234;8.344;2022-11-15T13:57:48;12.30;99.90
37972;DHT22;23794;48.234;8.344;2022-11-15T14:00:41;12.20;99.90
37972;DHT22;23794;48.234;8.344;2022-11-15T14:03:19;12.00;99.90
37972;DHT22;23794;48.234;8.344;2022-11-15T14:06:04;11.80;99.90
37972;DHT22;23794;48.234;8.344;2022-11-15T14:08:34;11.80;99.90
37972;DHT22;23794;48.234;8.344;2022-11-15T14:11:18;11.70;99.90
37972;DHT22;23794;48.234;8.344;2022-11-15T14:14:08;11.70;99.90
37972;DHT22;23794;48.234;8.344;2022-11-15T14:16:45;11.80;99.90
37972;DHT22;23794;48.234;8.344;2022-11-15T14:19:33;11.80;99.90
37972;DHT22;23794;48.234;8.344;2022-11-15T14:22:33;11.90;99.90
37972;DHT22;23794;48.234;8.344;2022-11-15T14:27:34;11.80;99.90
37972;DHT22;23794;48.234;8.344;2022-11-15T14:30:01;11.80;99.90
37972;DHT22;23794;48.234;8.344;2022-11-15T14:32:43;11.80;99.90
37972;DHT22;23794;48.234;8.344;2022-11-15T14:35:21;11.70;99.90
37972;DHT22;23794;48.234;8.344;2022-11-15T14:37:51;11.70;99.90
37972;DHT22;23794;48.234;8.344;2022-11-15T14:40:21;11.60;99.90
37972;DHT22;23794;48.234;8.344;2022-11-15T14:42:49;11.60;99.90
37972;DHT22;23794;48.234;8.344;2022-11-15T14:45:21;11.40;99.90
37972;DHT22;23794;48.234;8.344;2022-11-15T14:47:48;11.40;99.90
37972;DHT22;23794;48.234;8.344;2022-11-15T14:50:19;11.40;99.90
37972;DHT22;23794;48.234;8.344;2022-11-15T14:52:47;11.40;99.90
37972;DHT22;23794;48.234;8.344;2022-11-15T14:55:29;11.40;99.90
37972;DHT22;23794;48.234;8.344;2022-11-15T14:57:58;11.40;99.90
37972;DHT22;23794;48.234;8.344;2022-11-15T15:00:25;11.40;99.90
37972;DHT22;23794;48.234;8.344;2022-11-15T15:03:00;11.40;99.90
37972;DHT22;23794;48.234;8.344;2022-11-15T15:05:42;11.40;99.90
37972;DHT22;23794;48.234;8.344;2022-11-15T15:08:10;11.30;99.90
37972;DHT22;23794;48.234;8.344;2022-11-15T15:10:42;11.20;99.90
37972;DHT22;23794;48.234;8.344;2022-11-15T15:13:20;11.20;99.90
37972;DHT22;23794;48.234;8.344;2022-11-15T15:15:48;11.10;99.90
37972;DHT22;23794;48.234;8.344;2022-11-15T15:18:15;11.10;99.90
37972;DHT22;23794;48.234;8.344;2022-11-15T15:20:44;11.00;99.90
37972;DHT22;23794;48.234;8.344;2022-11-15T15:23:17;11.00;99.90
37972;DHT22;23794;48.234;8.344;2022-11-15T15:25:45;11.00;99.90
37972;DHT22;23794;48.234;8.344;2022-11-15T15:28:13;11.00;99.90
37972;DHT22;23794;48.234;8.344;2022-11-15T15:30:40;11.00;99.90
37972;DHT22;23794;48.234;8.344;2022-11-15T15:33:07;11.00;99.90
37972;DHT22;23794;48.234;8.344;2022-11-15T15:35:34;11.00;99.90
37972;DHT22;23794;48.234;8.344;2022-11-15T15:38:02;11.00;99.90
37972;DHT22;23794;48.234;8.344;2022-11-15T15:40:31;11.00;99.90
37972;DHT22;23794;48.234;8.344;2022-11-15T15:42:58;11.00;99.90
37972;DHT22;23794;48.234;8.344;2022-11-15T15:45:25;11.00;99.90
37972;DHT22;23794;48.234;8.344;2022-11-15T15:47:53;11.00;99.90
37972;DHT22;23794;48.234;8.344;2022-11-15T15:50:27;11.00;99.90
37972;DHT22;23794;48.234;8.344;2022-11-15T15:52:56;10.90;99.90
37972;DHT22;23794;48.234;8.344;2022-11-15T15:55:23;10.90;99.90
37972;DHT22;23794;48.234;8.344;2022-11-15T15:57:51;10.80;99.90
37972;DHT22;23794;48.234;8.344;2022-11-15T16:00:19;10.80;99.90
37972;DHT22;23794;48.234;8.344;2022-11-15T16:02:46;10.80;99.90
37972;DHT22;23794;48.234;8.344;2022-11-15T16:05:13;10.80;99.90
37972;DHT22;23794;48.234;8.344;2022-11-15T16:07:40;10.80;99.90
37972;DHT22;23794;48.234;8.344;2022-11-15T16:10:22;10.80;99.90
37972;DHT22;23794;48.234;8.344;2022-11-15T16:12:52;10.80;99.90
37972;DHT22;23794;48.234;8.344;2022-11-15T16:15:20;10.80;99.90
37972;DHT22;23794;48.234;8.344;2022-11-15T16:17:50;10.70;99.90
37972;DHT22;23794;48.234;8.344;2022-11-15T16:20:40;10.70;99.90
37972;DHT22;23794;48.234;8.344;2022-11-15T16:23:13;10.70;99.90
37972;DHT22;23794;48.234;8.344;2022-11-15T16:25:49;10.70;99.90
37972;DHT22;23794;48.234;8.344;2022-11-15T16:28:26;10.70;99.90
37972;DHT22;23794;48.234;8.344;2022-11-15T16:31:19;10.70;99.90
37972;DHT22;23794;48.234;8.344;2022-11-15T16:33:49;10.70;99.90
37972;DHT22;23794;48.234;8.344;2022-11-15T16:38:55;10.70;99.90
37972;DHT22;23794;48.234;8.344;2022-11-15T16:41:21;10.70;99.90
37972;DHT22;23794;48.234;8.344;2022-11-15T16:43:48;10.70;99.90
37972;DHT22;23794;48.234;8.344;2022-11-15T16:46:20;10.70;99.90
37972;DHT22;23794;48.234;8.344;2022-11-15T16:48:48;10.70;99.90
37972;DHT22;23794;48.234;8.344;2022-11-15T16:51:15;10.70;99.90
37972;DHT22;23794;48.234;8.344;2022-11-15T16:53:42;10.70;99.90
37972;DHT22;23794;48.234;8.344;2022-11-15T16:56:25;10.70;99.90
37972;DHT22;23794;48.234;8.344;2022-11-15T16:58:53;10.70;99.90
37972;DHT22;23794;48.234;8.344;2022-11-15T17:01:29;10.60;99.90
37972;DHT22;23794;48.234;8.344;2022-11-15T17:03:56;10.60;99.90
37972;DHT22;23794;48.234;8.344;2022-11-15T17:06:25;10.60;99.90
37972;DHT22;23794;48.234;8.344;2022-11-15T17:08:52;10.70;99.90
37972;DHT22;23794;48.234;8.344;2022-11-15T17:11:21;10.60;99.90
37972;DHT22;23794;48.234;8.344;2022-11-15T17:13:48;10.70;99.90
37972;DHT22;23794;48.234;8.344;2022-11-15T17:16:16;10.70;99.90
37972;DHT22;23794;48.234;8.344;2022-11-15T17:18:43;10.60;99.90
37972;DHT22;23794;48.234;8.344;2022-11-15T17:21:16;10.60;99.90
37972;DHT22;23794;48.234;8.344;2022-11-15T17:23:44;10.60;99.90
37972;DHT22;23794;48.234;8.344;2022-11-15T17:26:13;10.60;99.90
37972;DHT22;23794;48.234;8.344;2022-11-15T17:28:59;10.60;99.90
37972;DHT22;23794;48.234;8.344;2022-11-15T17:31:30;10.60;99.90
37972;DHT22;23794;48.234;8.344;2022-11-15T17:34:03;10.60;99.90
37972;DHT22;23794;48.234;8.344;2022-11-15T17:36:30;10.60;99.90
37972;DHT22;23794;48.234;8.344;2022-11-15T17:38:57;10.60;99.90
37972;DHT22;23794;48.234;8.344;2022-11-15T17:41:26;10.60;99.90
37972;DHT22;23794;48.234;8.344;2022-11-15T17:43:55;10.60;99.90
37972;DHT22;23794;48.234;8.344;2022-11-15T17:46:23;10.60;99.90
37972;DHT22;23794;48.234;8.344;2022-11-15T17:48:50;10.70;99.90
37972;DHT22;23794;48.234;8.344;2022-11-15T17:51:18;10.60;99.90
37972;DHT22;23794;48.234;8.344;2022-11-15T17:53:46;10.60;99.90
37972;DHT22;23794;48.234;8.344;2022-11-15T17:56:19;10.60;99.90
37972;DHT22;23794;48.234;8.344;2022-11-15T17:59:04;10.50;99.90
37972;DHT22;23794;48.234;8.344;2022-11-15T18:01:38;10.50;99.90
37972;DHT22;23794;48.234;8.344;2022-11-15T18:04:07;10.40;99.90
37972;DHT22;23794;48.234;8.344;2022-11-15T18:06:35;10.40;99.90
37972;DHT22;23794;48.234;8.344;2022-11-15T18:09:03;10.40;99.90
37972;DHT22;23794;48.234;8.344;2022-11-15T18:11:32;10.30;99.90
37972;DHT22;23794;48.234;8.344;2022-11-15T18:14:02;10.30;99.90
37972;DHT22;23794;48.234;8.344;2022-11-15T18:16:31;10.30;99.90
37972;DHT22;23794;48.234;8.344;2022-11-15T18:18:58;10.30;99.90
37972;DHT22;23794;48.234;8.344;2022-11-15T18:21:28;10.30;99.90
37972;DHT22;23794;48.234;8.344;2022-11-15T18:23:58;10.40;99.90
37972;DHT22;23794;48.234;8.344;2022-11-15T18:26:27;10.50;99.90
37972;DHT22;23794;48.234;8.344;2022-11-15T18:29:00;10.40;99.90
37972;DHT22;23794;48.234;8.344;2022-11-15T18:31:29;10.40;99.90
37972;DHT22;23794;48.234;8.344;2022-11-15T18:33:59;10.40;99.90
37972;DHT22;23794;48.234;8.344;2022-11-15T18:36:29;10.40;99.90
37972;DHT22;23794;48.234;8.344;2022-11-15T18:38:58;10.50;99.90
37972;DHT22;23794;48.234;8.344;2022-11-15T18:41:25;10.50;99.90
37972;DHT22;23794;48.234;8.344;2022-11-15T18:43:59;10.50;99.90
37972;DHT22;23794;48.234;8.344;2022-11-15T18:46:31;10.50;99.90
37972;DHT22;23794;48.234;8.344;2022-11-15T18:48:59;10.40;99.90
37972;DHT22;23794;48.234;8.344;2022-11-15T18:51:29;10.50;99.90
37972;DHT22;23794;48.234;8.344;2022-11-15T18:53:58;10.50;99.90
37972;DHT22;23794;48.234;8.344;2022-11-15T18:56:26;10.40;99.90